Time;durP1;ratioP1;P1;durP2;ratioP2;P2;SDS_P1;SDS_P2;PMS_P1;PMS_P2;Temp;Humidity;BMP_temperature;BMP_pressure;BME280_temperature;BME280_humidity;BME280_pressure;Samples;Min_cycle;Max_cycle;Signal;HPM_P1;HPM_P2
2022/05/07 00:00:38;;;;;;;5.23;3.17;;;;;;;11.28;100.00;101709.41;4965320;28;20039;-72
2022/05/07 00:03:04;;;;;;;6.20;3.60;;;;;;;11.22;100.00;101710.81;4982368;28;20032;-72
2022/05/07 00:05:29;;;;;;;3.95;2.85;;;;;;;11.23;100.00;101714.34;5003940;28;20498;-72
2022/05/07 00:07:54;;;;;;;6.90;3.50;;;;;;;11.18;100.00;101714.75;4986047;28;20132;-72
2022/05/07 00:10:20;;;;;;;4.73;2.77;;;;;;;11.19;100.00;101721.78;4987856;28;20042;-72
2022/05/07 00:12:45;;;;;;;3.70;2.90;;;;;;;11.12;100.00;101720.66;4987474;28;20037;-72
2022/05/07 00:15:11;;;;;;;5.27;2.80;;;;;;;11.08;100.00;101721.97;4987305;28;20038;-72
2022/05/07 00:20:20;;;;;;;4.97;3.42;;;;;;;10.95;100.00;101723.06;4970095;28;20081;-72
2022/05/07 00:22:46;;;;;;;4.40;3.10;;;;;;;10.94;100.00;101728.56;4987170;28;20113;-72
2022/05/07 00:25:11;;;;;;;6.10;3.50;;;;;;;10.84;100.00;101727.72;4985495;28;20034;-72
2022/05/07 00:27:37;;;;;;;6.13;3.43;;;;;;;10.79;100.00;101730.78;4970035;28;20084;-72
2022/05/07 00:30:04;;;;;;;6.18;3.40;;;;;;;10.80;100.00;101729.84;4992504;28;20487;-72
2022/05/07 00:32:30;;;;;;;8.50;4.03;;;;;;;10.81;100.00;101736.84;4969719;28;20030;-73
2022/05/07 00:34:55;;;;;;;4.50;3.20;;;;;;;10.76;100.00;101723.91;4987158;28;20030;-72
2022/05/07 00:37:23;;;;;;;6.80;3.85;;;;;;;10.76;100.00;101720.41;4987493;28;20269;-72
2022/05/07 00:39:49;;;;;;;7.05;3.97;;;;;;;10.69;100.00;101713.94;4969870;28;20054;-72
2022/05/07 00:42:15;;;;;;;6.75;4.20;;;;;;;10.66;100.00;101724.91;4969558;28;20014;-72
2022/05/07 00:44:41;;;;;;;4.55;3.20;;;;;;;10.61;100.00;101727.16;4969768;28;20044;-72
2022/05/07 00:47:28;;;;;;;5.20;3.53;;;;;;;10.59;100.00;101732.63;4969826;28;20113;-72
2022/05/07 00:51:33;;;;;;;5.53;3.67;;;;;;;10.61;100.00;101737.84;4984652;28;20049;-72
2022/05/07 00:52:41;;;;;;;6.82;3.80;;;;;;;10.59;100.00;101731.78;4982385;28;20151;-72
2022/05/07 00:55:08;;;;;;;5.50;4.20;;;;;;;10.60;100.00;101741.47;4949853;28;20054;-72
2022/05/07 00:57:35;;;;;;;7.13;3.88;;;;;;;10.64;100.00;101740.22;4967928;28;20050;-72
2022/05/07 01:00:03;;;;;;;7.15;4.55;;;;;;;10.62;100.00;101736.84;4969617;28;20019;-71
2022/05/07 01:02:28;;;;;;;7.60;4.45;;;;;;;10.62;100.00;101735.00;4969219;28;20037;-72
2022/05/07 01:04:54;;;;;;;8.88;4.70;;;;;;;10.69;100.00;101741.47;4986960;28;20022;-73
2022/05/07 01:07:21;;;;;;;6.55;4.78;;;;;;;10.69;100.00;101738.81;4967898;28;20029;-72
2022/05/07 01:09:47;;;;;;;7.87;4.37;;;;;;;10.83;100.00;101747.41;4988695;28;20091;-72
2022/05/07 01:12:13;;;;;;;8.63;5.72;;;;;;;10.89;100.00;101729.00;4995265;28;20038;-72
2022/05/07 01:14:39;;;;;;;6.43;4.20;;;;;;;10.94;100.00;101732.06;4986030;28;20034;-72
2022/05/07 01:17:08;;;;;;;10.10;5.72;;;;;;;10.90;100.00;101727.16;4988837;28;20034;-72
2022/05/07 01:19:36;;;;;;;9.35;6.30;;;;;;;10.90;100.00;101727.16;4986555;28;20034;-72
2022/05/07 01:22:02;;;;;;;7.57;4.90;;;;;;;10.88;100.00;101713.94;4955381;28;20419;-72
2022/05/07 01:24:28;;;;;;;9.13;5.78;;;;;;;10.93;100.00;101722.38;4964461;28;20454;-72
2022/05/07 01:26:53;;;;;;;10.90;6.73;;;;;;;10.98;100.00;101724.63;4969938;28;20038;-72
2022/05/07 01:29:19;;;;;;;12.50;7.10;;;;;;;10.97;100.00;101723.78;4969195;28;20393;-72
2022/05/07 01:31:44;;;;;;;13.30;6.77;;;;;;;10.86;100.00;101712.38;4968557;28;20418;-72
2022/05/07 01:34:10;;;;;;;14.83;8.93;;;;;;;10.87;100.00;101722.09;4968979;28;20850;-72
2022/05/07 01:36:38;;;;;;;16.33;9.10;;;;;;;10.91;100.00;101727.03;4965866;28;20518;-72
2022/05/07 01:39:09;;;;;;;18.40;12.18;;;;;;;10.96;100.00;101723.94;4949606;28;20034;-72
2022/05/07 01:41:34;;;;;;;15.77;9.90;;;;;;;10.93;100.00;101721.53;4968286;28;20076;-72
2022/05/07 01:44:01;;;;;;;20.77;12.18;;;;;;;10.94;100.00;101728.56;4968837;28;20494;-72
2022/05/07 01:49:13;;;;;;;24.88;11.60;;;;;;;10.92;100.00;101715.34;4984974;28;20526;-73
2022/05/07 01:51:39;;;;;;;27.23;15.57;;;;;;;10.87;100.00;101717.59;4968423;28;20058;-72
2022/05/07 01:54:04;;;;;;;19.33;12.13;;;;;;;10.88;100.00;101719.28;4949584;28;20027;-72
2022/05/07 01:56:30;;;;;;;27.93;14.77;;;;;;;10.91;100.00;101719.00;4974735;28;20027;-72
2022/05/07 01:58:56;;;;;;;28.38;16.52;;;;;;;10.98;100.00;101719.28;4987849;28;20838;-72
2022/05/07 02:01:21;;;;;;;27.77;15.33;;;;;;;11.01;100.00;101724.34;4968907;28;20023;-72
2022/05/07 02:03:47;;;;;;;33.23;15.93;;;;;;;10.96;100.00;101715.91;4950797;28;20389;-72
2022/05/07 02:06:17;;;;;;;24.50;13.07;;;;;;;10.98;100.00;101716.63;4949360;28;20026;-72
2022/05/07 02:08:43;;;;;;;27.27;15.88;;;;;;;10.97;100.00;101718.44;4966307;28;20578;-72
2022/05/07 02:11:15;;;;;;;29.23;16.08;;;;;;;11.11;100.00;101724.34;4949104;28;20035;-72
2022/05/07 02:13:41;;;;;;;29.57;17.93;;;;;;;11.07;100.00;101712.25;4983395;28;20053;-72
2022/05/07 02:16:06;;;;;;;28.00;16.92;;;;;;;11.06;100.00;101713.25;4967917;28;20034;-72
2022/05/07 02:18:32;;;;;;;31.38;17.77;;;;;;;11.07;100.00;101709.56;4948382;28;20042;-72
2022/05/07 02:20:57;;;;;;;30.30;17.50;;;;;;;11.13;100.00;101722.38;4967544;28;20030;-72
2022/05/07 02:23:23;;;;;;;31.97;19.20;;;;;;;11.11;100.00;101709.13;4968212;28;20034;-72
2022/05/07 02:25:48;;;;;;;38.57;20.53;;;;;;;11.13;100.00;101711.69;4967780;28;20018;-72
2022/05/07 02:28:14;;;;;;;35.13;18.43;;;;;;;11.16;100.00;101714.06;4968628;28;20907;-72
2022/05/07 02:30:40;;;;;;;33.00;20.90;;;;;;;11.20;100.00;101712.78;4968412;28;20029;-72
2022/05/07 02:33:06;;;;;;;;;;;;;;;11.21;100.00;101706.44;4949584;28;20034;-72
2022/05/07 02:35:34;;;;;;;41.40;22.75;;;;;;;11.21;100.00;101703.78;4965020;28;19914;-72
2022/05/07 02:38:00;;;;;;;36.57;22.23;;;;;;;11.22;100.00;101708.16;5000762;28;20088;-72
2022/05/07 02:40:26;;;;;;;38.28;23.25;;;;;;;11.20;100.00;101702.94;4988423;28;20037;-72
2022/05/07 02:42:54;;;;;;;46.95;24.80;;;;;;;11.24;100.00;101703.50;4971847;28;20026;-72
2022/05/07 02:45:19;;;;;;;45.00;24.13;;;;;;;11.29;100.00;101703.91;4972175;28;20045;-72
2022/05/07 02:47:51;;;;;;;47.50;25.92;;;;;;;11.30;100.00;101702.06;4972248;28;20042;-72
2022/05/07 02:50:19;;;;;;;47.40;26.10;;;;;;;11.30;100.00;101710.09;4971909;28;20026;-72
2022/05/07 02:52:45;;;;;;;45.97;26.90;;;;;;;11.26;100.00;101706.00;4988971;28;20064;-72
2022/05/07 02:55:11;;;;;;;48.87;26.87;;;;;;;11.25;100.00;101705.19;4962145;28;20400;-73
2022/05/07 02:57:37;;;;;;;45.53;24.48;;;;;;;11.29;100.00;101711.94;4968994;28;20030;-72
2022/05/07 03:00:05;;;;;;;46.60;28.37;;;;;;;11.20;100.00;101712.78;4952713;28;20033;-72
2022/05/07 03:02:32;;;;;;;46.83;26.60;;;;;;;11.24;100.00;101732.91;4969819;28;20022;-73
2022/05/07 03:04:58;;;;;;;49.65;28.42;;;;;;;11.26;100.00;101720.25;5003988;28;20124;-72
2022/05/07 03:07:23;;;;;;;50.77;26.97;;;;;;;11.21;100.00;101714.47;4952594;28;20093;-73
2022/05/07 03:09:50;;;;;;;47.03;26.73;;;;;;;11.20;100.00;101724.31;4970285;28;20034;-72
2022/05/07 03:12:15;;;;;;;49.93;28.13;;;;;;;11.19;100.00;101727.13;4988881;28;20552;-72
2022/05/07 03:14:43;;;;;;;53.17;29.15;;;;;;;11.11;100.00;101724.34;4953436;28;20042;-72
2022/05/07 03:17:08;;;;;;;52.40;28.93;;;;;;;11.07;100.00;101723.75;4989226;28;20093;-72
2022/05/07 03:19:37;;;;;;;57.22;29.95;;;;;;;11.02;100.00;101719.84;4971719;28;20035;-72
2022/05/07 03:22:03;;;;;;;56.30;29.63;;;;;;;11.03;100.00;101726.84;4988558;28;20019;-72
2022/05/07 03:24:30;;;;;;;52.85;27.77;;;;;;;10.95;100.00;101731.09;4971417;28;20922;-72
2022/05/07 03:27:00;;;;;;;59.25;31.92;;;;;;;10.87;100.00;101722.94;4960394;28;20057;-72
2022/05/07 03:29:25;;;;;;;53.55;29.48;;;;;;;10.85;100.00;101729.41;4952015;28;20042;-72
2022/05/07 03:32:00;;;;;;;54.78;29.02;;;;;;;10.79;100.00;101720.13;4963216;28;20118;-72
2022/05/07 03:34:26;;;;;;;54.53;28.93;;;;;;;10.70;100.00;101716.47;4965916;28;20109;-72
2022/05/07 03:36:51;;;;;;;52.83;30.03;;;;;;;10.58;100.00;101717.56;4987539;28;20038;-72
2022/05/07 03:39:17;;;;;;;54.75;30.35;;;;;;;10.59;100.00;101724.63;4951681;28;20283;-72
2022/05/07 03:41:43;;;;;;;53.45;28.88;;;;;;;10.60;100.00;101725.44;4970946;28;20022;-72
2022/05/07 03:44:10;;;;;;;56.53;29.60;;;;;;;10.54;100.00;101724.19;4952041;28;20042;-72
2022/05/07 03:46:36;;;;;;;53.92;29.77;;;;;;;10.49;100.00;101723.75;4971239;28;20018;-72
2022/05/07 03:49:04;;;;;;;67.78;32.72;;;;;;;10.44;100.00;101726.84;4970815;28;20038;-72
2022/05/07 03:53:29;;;;;;;54.78;30.73;;;;;;;10.45;100.00;101725.84;4970854;28;20065;-72
2022/05/07 03:54:17;;;;;;;;;;;;;;;10.47;100.00;101736.41;4971581;28;20045;-72
2022/05/07 03:56:45;;;;;;;65.10;32.63;;;;;;;10.45;100.00;101733.03;4988528;28;19913;-72
2022/05/07 03:59:11;;;;;;;54.97;30.05;;;;;;;10.56;100.00;101743.59;4990263;28;20055;-73
2022/05/07 04:01:43;;;;;;;54.97;30.85;;;;;;;10.66;100.00;101739.09;4974796;28;20706;-72
2022/05/07 04:04:08;;;;;;;54.73;29.83;;;;;;;10.73;100.00;101747.41;4992129;28;20063;-72
2022/05/07 04:06:35;;;;;;;58.08;31.45;;;;;;;10.81;100.00;101736.84;4970829;28;20021;-72
2022/05/07 04:09:00;;;;;;;57.53;32.20;;;;;;;10.83;100.00;101731.38;4970860;28;20446;-72
2022/05/07 04:11:26;;;;;;;63.67;34.75;;;;;;;10.85;100.00;101724.91;4970324;28;20037;-72
2022/05/07 04:13:55;;;;;;;67.80;33.92;;;;;;;10.98;100.00;101733.50;4970175;28;20046;-72
2022/05/07 04:16:22;;;;;;;67.15;33.08;;;;;;;11.07;100.00;101730.94;4951296;28;20492;-72
2022/05/07 04:19:03;;;;;;;62.72;32.88;;;;;;;11.08;100.00;101729.97;4970594;28;20117;-72
2022/05/07 04:21:30;;;;;;;63.83;33.08;;;;;;;11.12;100.00;101720.66;4970489;28;20041;-72
2022/05/07 04:24:05;;;;;;;66.60;34.33;;;;;;;11.08;100.00;101722.78;4959126;28;20388;-72
2022/05/07 04:26:31;;;;;;;;;;;;;;;11.22;100.00;101716.16;4972797;28;20403;-72
2022/05/07 04:28:58;;;;;;;61.30;33.92;;;;;;;11.30;100.00;101716.28;4970453;28;19910;-72
2022/05/07 04:31:24;;;;;;;66.67;33.00;;;;;;;11.26;100.00;101706.88;4952334;28;20039;-72
2022/05/07 04:33:56;;;;;;;58.92;34.67;;;;;;;11.31;100.00;101704.63;4969832;28;20294;-72
2022/05/07 04:36:21;;;;;;;70.43;36.63;;;;;;;11.21;100.00;101703.78;4969437;28;20479;-72
2022/05/07 04:38:47;;;;;;;63.07;35.93;;;;;;;11.29;100.00;101703.91;4973719;28;20041;-72
2022/05/07 04:41:19;;;;;;;65.43;34.88;;;;;;;11.35;100.00;101703.31;4959689;28;20029;-72
2022/05/07 04:43:45;;;;;;;65.73;37.37;;;;;;;11.41;100.00;101705.44;4963900;28;20381;-72
2022/05/07 04:46:13;;;;;;;60.70;34.33;;;;;;;11.44;100.00;101698.09;4969362;28;20022;-72
2022/05/07 04:48:41;;;;;;;68.83;36.97;;;;;;;11.51;100.00;101697.38;4968702;28;20038;-72
2022/05/07 04:51:07;;;;;;;63.22;37.17;;;;;;;11.51;100.00;101697.38;4949597;28;20031;-72
2022/05/07 04:53:37;;;;;;;60.33;32.88;;;;;;;11.62;100.00;101712.41;4967919;28;20495;-72
2022/05/07 04:56:10;;;;;;;72.03;38.35;;;;;;;11.67;100.00;101706.63;4973840;28;20034;-72
2022/05/07 04:58:42;;;;;;;80.03;35.55;;;;;;;11.61;100.00;101700.88;4966302;28;20042;-72
2022/05/07 05:01:09;;;;;;;;;;;;;;;11.77;100.00;101718.97;4954951;28;20034;-72
2022/05/07 05:03:41;;;;;;;69.57;34.88;;;;;;;11.79;100.00;101708.13;4953744;28;19920;-72
2022/05/07 05:06:15;;;;;;;64.53;35.08;;;;;;;11.77;100.00;101694.88;4969818;28;20034;-72
2022/05/07 05:09:08;;;;;;;65.45;36.38;;;;;;;11.75;100.00;101694.22;4984309;28;20049;-72
2022/05/07 05:11:40;;;;;;;62.92;33.40;;;;;;;11.86;100.00;101708.38;4968784;28;20412;-72
2022/05/07 05:16:54;;;;;;;65.88;35.35;;;;;;;12.03;100.00;101699.59;4984870;28;20033;-72
2022/05/07 05:19:19;;;;;;;71.33;36.87;;;;;;;11.91;100.00;101704.28;4969478;28;20030;-72
2022/05/07 05:21:46;;;;;;;62.97;35.33;;;;;;;12.15;100.00;101722.50;4951495;28;20071;-73
2022/05/07 05:24:17;;;;;;;65.47;32.83;;;;;;;12.20;100.00;101716.72;4950403;28;20074;-72
2022/05/07 05:26:43;;;;;;;61.87;33.70;;;;;;;12.23;100.00;101709.22;4967292;28;20459;-73
2022/05/07 05:29:14;;;;;;;58.05;33.05;;;;;;;12.44;100.00;101710.78;4969293;28;20092;-72
2022/05/07 05:31:39;;;;;;;58.20;29.67;;;;;;;12.63;100.00;101712.47;4969016;28;20038;-72
2022/05/07 05:34:13;;;;;;;65.18;33.63;;;;;;;12.57;100.00;101705.91;4969409;28;20812;-73
2022/05/07 05:36:46;;;;;;;59.67;31.73;;;;;;;12.61;100.00;101699.22;4969409;28;20093;-72
2022/05/07 05:39:13;;;;;;;65.20;34.00;;;;;;;12.79;100.00;101691.19;4969422;28;20366;-72
2022/05/07 05:41:42;;;;;;;60.92;32.22;;;;;;;12.80;100.00;101698.22;4968146;28;20018;-72
2022/05/07 05:44:08;;;;;;;59.63;32.03;;;;;;;12.92;100.00;101711.38;4986480;28;20030;-72
2022/05/07 05:46:33;;;;;;;56.65;34.28;;;;;;;13.08;100.00;101716.88;4969475;28;20014;-72
2022/05/07 05:48:59;;;;;;;59.97;32.93;;;;;;;13.20;100.00;101704.91;4994787;28;20061;-73
2022/05/07 05:51:25;;;;;;;61.67;32.63;;;;;;;12.85;100.00;101684.38;4999692;28;20081;-72
2022/05/07 05:53:51;;;;;;;60.42;31.95;;;;;;;12.92;100.00;101709.53;4968870;28;20034;-72
2022/05/07 05:56:16;;;;;;;56.63;31.73;;;;;;;13.03;100.00;101720.03;4949209;28;20058;-72
2022/05/07 05:58:47;;;;;;;57.47;31.90;;;;;;;12.98;100.00;101716.97;4967284;28;20207;-72
2022/05/07 06:01:14;;;;;;;65.75;32.30;;;;;;;13.02;100.00;101722.88;4968617;28;20026;-73
2022/05/07 06:04:07;;;;;;;56.78;31.33;;;;;;;12.94;100.00;101730.84;4968747;28;20022;-72
2022/05/07 06:06:32;;;;;;;57.13;32.33;;;;;;;12.70;100.00;101734.97;4949504;28;20043;-72
2022/05/07 06:08:58;;;;;;;51.67;27.57;;;;;;;12.51;100.00;101724.41;4968418;28;20025;-72
2022/05/07 06:11:24;;;;;;;50.15;29.45;;;;;;;12.66;100.00;101737.09;4968228;28;20030;-72
2022/05/07 06:13:50;;;;;;;52.43;30.43;;;;;;;12.62;100.00;101742.94;4968531;28;20041;-72
2022/05/07 06:16:17;;;;;;;58.23;31.43;;;;;;;12.81;100.00;101748.16;4953038;28;20410;-72
2022/05/07 06:18:43;;;;;;;53.40;27.58;;;;;;;13.06;100.00;101751.91;4969634;28;20292;-72
2022/05/07 06:21:10;;;;;;;49.47;27.15;;;;;;;12.94;100.00;101726.31;4971515;28;20038;-73
2022/05/07 06:23:39;;;;;;;46.50;26.08;;;;;;;13.00;100.00;101724.88;4984482;28;20224;-72
2022/05/07 06:28:49;;;;;;;47.58;25.48;;;;;;;13.24;100.00;101732.28;4996811;28;20038;-72
2022/05/07 06:31:14;;;;;;;51.92;25.08;;;;;;;13.31;100.00;101703.84;4975183;28;20031;-72
2022/05/07 06:33:42;;;;;;;48.88;26.92;;;;;;;13.46;100.00;101721.06;4972033;28;20069;-72
2022/05/07 06:36:10;;;;;;;44.38;25.95;;;;;;;13.74;100.00;101728.94;4972023;28;20041;-72
2022/05/07 06:38:38;;;;;;;47.47;25.90;;;;;;;13.55;100.00;101716.59;4967311;28;20169;-72
2022/05/07 06:41:06;;;;;;;42.30;24.70;;;;;;;13.47;100.00;101712.00;4971918;28;20021;-72
2022/05/07 06:43:34;;;;;;;42.70;23.95;;;;;;;13.65;100.00;101708.41;4956063;28;20045;-73
2022/05/07 06:46:07;;;;;;;38.92;22.70;;;;;;;13.73;100.00;101711.16;4971576;28;20119;-73
2022/05/07 06:48:51;;;;;;;51.40;25.00;;;;;;;13.78;100.00;101708.00;4971470;28;20133;-72
2022/05/07 06:51:24;;;;;;;44.88;25.77;;;;;;;13.71;100.00;101713.16;4971421;28;20069;-72
2022/05/07 06:53:49;;;;;;;49.92;27.63;;;;;;;13.83;100.00;101722.59;4984047;28;20771;-72
2022/05/07 06:56:15;;;;;;;43.95;25.85;;;;;;;14.08;100.00;101730.78;4984928;28;20034;-72
2022/05/07 06:58:41;;;;;;;44.22;25.45;;;;;;;14.16;100.00;101698.56;4951656;28;20042;-72
2022/05/07 07:01:07;;;;;;;42.45;23.10;;;;;;;14.77;100.00;101716.22;4984795;28;20053;-72
2022/05/07 07:03:33;;;;;;;38.75;21.67;;;;;;;15.07;100.00;101695.03;4965657;28;20503;-72
2022/05/07 07:06:00;;;;;;;39.90;23.27;;;;;;;15.56;100.00;101686.91;4986883;28;20058;-72
2022/05/07 07:08:29;;;;;;;44.42;24.73;;;;;;;15.65;100.00;101633.06;4971235;28;20036;-72
2022/05/07 07:10:55;;;;;;;41.35;24.30;;;;;;;15.48;100.00;101616.97;4969288;28;20030;-72
2022/05/07 07:13:20;;;;;;;39.65;24.05;;;;;;;15.56;100.00;101634.94;4953264;28;20738;-72
2022/05/07 07:15:45;;;;;;;43.87;25.90;;;;;;;15.96;100.00;101666.25;4987130;28;20026;-73
2022/05/07 07:18:11;;;;;;;36.80;22.63;;;;;;;15.81;100.00;101636.53;4988277;28;20166;-73
2022/05/07 07:20:41;;;;;;;38.13;23.03;;;;;;;16.04;99.87;101616.91;4988858;28;20030;-73
2022/05/07 07:23:11;;;;;;;36.28;23.30;;;;;;;15.83;98.61;101598.69;4988607;28;20085;-73
2022/05/07 07:25:41;;;;;;;35.65;21.17;;;;;;;16.68;95.36;101622.84;4954665;28;20030;-72
2022/05/07 07:28:07;;;;;;;42.95;23.63;;;;;;;16.80;90.62;101563.94;4988573;28;20053;-73
2022/05/07 07:30:33;;;;;;;40.83;22.08;;;;;;;17.66;86.58;101574.28;4986743;28;20036;-73
2022/05/07 07:32:58;;;;;;;32.60;20.63;;;;;;;17.75;81.95;101512.88;4985854;28;20894;-72
2022/05/07 07:35:24;;;;;;;31.67;20.13;;;;;;;18.01;83.23;101578.03;4985971;28;20064;-72
2022/05/07 07:37:49;;;;;;;33.80;18.93;;;;;;;18.35;79.02;101530.53;4966408;28;20482;-73
2022/05/07 07:40:15;;;;;;;28.97;19.93;;;;;;;18.35;76.35;101477.31;4984593;28;20304;-73
2022/05/07 07:42:41;;;;;;;42.97;20.85;;;;;;;17.77;79.30;101510.81;4982366;28;20567;-73
2022/05/07 07:47:57;;;;;;;30.10;18.88;;;;;;;17.49;79.81;101525.06;4984193;28;19937;-73
2022/05/07 07:50:30;;;;;;;30.02;18.55;;;;;;;17.41;80.04;101527.84;4984263;28;20105;-72
2022/05/07 07:52:58;;;;;;;27.25;17.23;;;;;;;16.93;84.84;101590.28;4987016;28;20040;-72
2022/05/07 07:55:24;;;;;;;29.48;17.15;;;;;;;16.64;86.23;101607.19;4983985;28;20014;-73
2022/05/07 07:57:56;;;;;;;35.20;18.07;;;;;;;16.54;89.44;101645.19;4983823;28;20530;-72
2022/05/07 08:00:22;;;;;;;26.33;16.35;;;;;;;16.48;88.17;101623.50;4970152;28;20084;-73
2022/05/07 08:02:55;;;;;;;31.20;16.77;;;;;;;16.53;88.42;101648.06;4966234;28;20038;-73
2022/05/07 08:05:30;;;;;;;30.67;18.58;;;;;;;16.46;91.63;101686.53;4985274;28;20092;-73
2022/05/07 08:13:26;;;;;;;33.33;17.63;;;;;;;15.98;93.12;101693.84;4984716;28;20077;-72
2022/05/07 08:15:51;;;;;;;30.08;17.55;;;;;;;15.88;92.12;101660.91;4984215;28;20050;-72
2022/05/07 08:18:17;;;;;;;30.23;17.33;;;;;;;15.85;94.16;101693.59;4970139;28;20034;-72
2022/05/07 08:20:43;;;;;;;28.25;16.05;;;;;;;15.75;92.83;101666.00;4985562;28;20037;-72
2022/05/07 08:23:09;;;;;;;;;;;;;;;15.92;96.20;101726.00;4984134;28;20034;-72
2022/05/07 08:25:35;;;;;;;;;;;;;;;15.68;95.60;101703.50;4967077;28;20000;-72
2022/05/07 08:28:00;;;;;;;;;;;;;;;15.99;95.90;101730.56;4987722;28;19941;-72
2022/05/07 08:30:26;;;;;;;27.30;16.80;;;;;;;16.11;93.72;101701.38;4982904;28;19913;-73
2022/05/07 08:32:51;;;;;;;29.17;17.40;;;;;;;16.23;93.48;101712.59;4985757;28;20379;-72
2022/05/07 08:35:18;;;;;;;30.20;16.23;;;;;;;16.34;90.85;101682.56;4963589;28;20137;-73
2022/05/07 08:37:44;;;;;;;29.02;16.75;;;;;;;16.43;93.12;101730.00;4980754;28;20031;-72
2022/05/07 08:40:09;;;;;;;25.42;14.95;;;;;;;16.38;93.16;101727.00;4983458;28;20573;-72
2022/05/07 08:42:38;;;;;;;29.02;16.50;;;;;;;16.43;94.24;101740.78;4981165;28;20061;-73
2022/05/07 08:45:04;;;;;;;26.20;13.63;;;;;;;16.33;94.78;101744.72;4985309;28;20250;-73
2022/05/07 08:47:29;;;;;;;21.55;13.85;;;;;;;16.32;92.42;101708.84;4982305;28;20491;-72
2022/05/07 08:49:55;;;;;;;21.88;12.60;;;;;;;16.91;92.63;101751.47;4986363;28;20030;-73
2022/05/07 08:52:22;;;;;;;23.37;14.17;;;;;;;17.03;88.41;101689.84;4984932;28;20034;-72
2022/05/07 08:54:48;;;;;;;24.73;14.18;;;;;;;17.20;87.02;101699.44;4983361;28;20038;-73
2022/05/07 08:57:13;;;;;;;21.53;12.93;;;;;;;17.34;86.10;101684.31;4966374;28;21024;-72
2022/05/07 08:59:39;;;;;;;28.17;13.65;;;;;;;16.99;88.91;101699.31;4983049;28;20092;-72
2022/05/07 09:02:05;;;;;;;23.58;13.93;;;;;;;16.83;90.18;101722.72;4969165;28;20042;-73
2022/05/07 09:04:32;;;;;;;25.30;15.07;;;;;;;16.82;90.53;101739.91;4969596;28;20033;-73
2022/05/07 09:07:01;;;;;;;21.58;13.18;;;;;;;17.20;90.87;101756.13;4969259;28;20034;-73
2022/05/07 09:09:30;;;;;;;21.60;15.00;;;;;;;17.48;89.37;101755.53;4984028;28;20431;-73
2022/05/07 09:11:56;;;;;;;21.35;14.65;;;;;;;17.78;86.26;101717.75;4965301;28;20034;-73
2022/05/07 09:14:30;;;;;;;19.38;13.82;;;;;;;17.89;85.03;101699.25;4984375;28;20030;-73
2022/05/07 09:16:59;;;;;;;26.70;14.38;;;;;;;18.02;81.68;101658.03;4984153;28;20061;-72
2022/05/07 09:19:27;;;;;;;24.33;15.55;;;;;;;17.99;81.53;101646.78;4982458;28;20493;-73
2022/05/07 09:22:13;;;;;;;22.98;14.32;;;;;;;18.16;81.61;101674.44;4985109;28;20049;-73
2022/05/07 09:24:40;;;;;;;24.98;13.98;;;;;;;18.36;81.32;101686.31;4981719;28;20050;-73
2022/05/07 09:27:06;;;;;;;18.02;12.90;;;;;;;17.84;81.26;101641.41;4984593;28;20367;-73
2022/05/07 09:29:33;;;;;;;22.48;12.13;;;;;;;17.58;84.22;101685.91;4968660;28;20026;-73
2022/05/07 09:32:15;;;;;;;20.20;13.85;;;;;;;17.46;84.39;101687.38;4985911;28;20029;-73
2022/05/07 09:37:39;;;;;;;23.05;14.15;;;;;;;17.48;84.69;101691.56;4984343;28;20080;-73
2022/05/07 09:40:09;;;;;;;19.20;11.85;;;;;;;17.80;83.11;101691.41;4986408;28;20038;-73
2022/05/07 09:42:35;;;;;;;18.73;12.25;;;;;;;18.28;82.30;101714.28;4952055;28;20124;-72
2022/05/07 09:45:02;;;;;;;20.67;13.35;;;;;;;18.14;80.82;101664.66;4982345;28;20180;-73
2022/05/07 09:47:28;;;;;;;19.85;13.27;;;;;;;18.69;76.60;101619.03;4967206;28;20042;-73
2022/05/07 09:57:30;;;;;;;19.00;11.80;;;;;;;18.61;75.95;101615.59;4982674;28;20108;-73
2022/05/07 09:58:09;;;;;;;17.95;12.60;;;;;;;17.92;81.46;101679.13;4980097;28;20128;-73
2022/05/07 10:00:40;;;;;;;22.33;14.57;;;;;;;17.17;83.28;101651.25;4982217;28;20480;-73
2022/05/07 10:03:16;;;;;;;23.92;13.43;;;;;;;17.58;84.51;101712.91;4977636;28;20108;-73
2022/05/07 10:05:57;;;;;;;20.42;11.60;;;;;;;17.43;86.11;101730.97;4981806;28;20038;-74
2022/05/07 10:08:49;;;;;;;14.07;10.40;;;;;;;17.42;85.77;101721.16;4968172;28;20092;-73
2022/05/07 10:11:16;;;;;;;16.90;10.52;;;;;;;17.01;87.33;101710.75;4951484;28;20049;-73
2022/05/07 10:13:52;;;;;;;17.70;11.60;;;;;;;16.76;91.10;101762.13;4966459;28;20037;-73
2022/05/07 10:16:24;;;;;;;;;;;;;;;16.76;92.86;101793.66;4986224;28;20042;-73
2022/05/07 10:18:50;;;;;;;17.17;9.88;;;;;;;17.00;92.98;101804.34;4982260;28;20286;-73
2022/05/07 10:21:19;;;;;;;18.43;11.53;;;;;;;17.01;94.11;101807.88;4967964;28;20022;-73
2022/05/07 10:24:05;;;;;;;22.25;12.48;;;;;;;17.29;92.25;101794.69;4970388;28;20292;-73
2022/05/07 10:26:42;;;;;;;20.05;12.63;;;;;;;16.95;93.49;101782.47;4984140;28;20531;-73
2022/05/07 10:29:19;;;;;;;19.42;11.38;;;;;;;16.99;95.41;101809.91;4977366;28;20084;-73
2022/05/07 10:31:45;;;;;;;18.27;11.65;;;;;;;17.32;93.12;101801.56;4979482;28;20049;-73
2022/05/07 10:34:10;;;;;;;18.08;11.50;;;;;;;16.95;93.79;101768.97;4948729;28;20387;-73
2022/05/07 10:36:36;;;;;;;14.30;11.00;;;;;;;17.03;93.48;101768.06;4983420;28;20038;-73
2022/05/07 10:39:08;;;;;;;14.37;9.97;;;;;;;17.38;93.07;101788.19;4985536;28;20882;-73
2022/05/07 10:41:46;;;;;;;18.35;10.35;;;;;;;17.61;89.86;101749.50;4985119;28;20130;-73
2022/05/07 10:44:11;;;;;;;13.27;10.13;;;;;;;17.64;88.83;101728.38;4982616;28;20096;-73
2022/05/07 10:46:46;;;;;;;14.83;9.57;;;;;;;17.59;89.13;101733.50;4966151;28;20022;-73
2022/05/07 10:49:12;;;;;;;14.38;9.93;;;;;;;17.59;89.39;101744.28;4981808;28;20424;-73
2022/05/07 10:51:38;;;;;;;14.75;10.52;;;;;;;17.64;89.69;101759.94;4964003;28;20033;-72
2022/05/07 10:54:18;;;;;;;11.52;9.18;;;;;;;17.62;91.63;101779.00;4948460;28;20038;-73
2022/05/07 10:57:03;;;;;;;13.15;9.05;;;;;;;17.51;90.06;101744.34;4998136;28;20121;-73
2022/05/07 10:59:29;;;;;;;14.70;8.05;;;;;;;17.35;91.18;101748.06;4983386;28;20141;-73
2022/05/07 11:02:05;;;;;;;;;;;;;;;17.35;91.98;101752.63;4986836;28;20135;-73
2022/05/07 11:04:30;;;;;;;12.90;8.55;;;;;;;17.32;93.22;101766.47;4985971;28;20000;-73
2022/05/07 11:06:56;;;;;;;15.77;10.60;;;;;;;17.14;90.47;101715.53;4986626;28;20022;-73
2022/05/07 11:09:23;;;;;;;;;;;;;;;17.02;93.44;101760.97;4971954;28;20051;-73
2022/05/07 11:11:54;;;;;;;12.60;7.57;;;;;;;17.18;91.28;101728.47;4953213;28;20649;-73
2022/05/07 11:14:35;;;;;;;12.25;8.77;;;;;;;17.00;91.56;101720.72;4964539;28;20049;-73
2022/05/07 11:17:04;;;;;;;16.92;9.73;;;;;;;17.19;90.74;101727.47;4958535;28;20447;-72
2022/05/07 11:19:33;;;;;;;8.63;7.35;;;;;;;17.20;89.17;101709.41;4983578;28;20165;-73
2022/05/07 11:22:02;;;;;;;11.50;7.35;;;;;;;17.30;91.31;101750.47;4984609;28;20038;-72
2022/05/07 11:24:29;;;;;;;14.73;6.90;;;;;;;17.39;91.32;101762.84;4984965;28;20026;-73
2022/05/07 11:27:02;;;;;;;9.60;5.70;;;;;;;16.99;92.44;101740.59;4973820;28;20084;-73
2022/05/07 11:29:29;;;;;;;8.30;6.20;;;;;;;17.16;98.15;101833.06;4969958;28;20050;-73
2022/05/07 11:31:58;;;;;;;10.32;6.55;;;;;;;16.77;95.35;101746.81;4994591;28;20038;-73
2022/05/07 11:34:32;;;;;;;10.30;6.35;;;;;;;17.07;100.00;101861.13;4970623;28;20030;-72
2022/05/07 11:37:15;;;;;;;9.43;5.82;;;;;;;17.03;98.82;101808.53;4968915;28;20038;-73
2022/05/07 11:39:50;;;;;;;7.32;5.53;;;;;;;17.30;98.64;101815.22;4978551;28;20037;-73
2022/05/07 11:42:38;;;;;;;9.00;6.50;;;;;;;17.21;96.98;101789.34;4958863;28;20066;-73